sensor_id;sensor_type;location;lat;lon;timestamp;P1;durP1;ratioP1;P2;durP2;ratioP2
20609;SDS011;10463;52.378;9.688;2022-07-29T00:01:35;1.83;;;1.00;;
20609;SDS011;10463;52.378;9.688;2022-07-29T00:04:21;2.30;;;1.47;;
20609;SDS011;10463;52.378;9.688;2022-07-29T00:07:06;2.57;;;1.50;;
20609;SDS011;10463;52.378;9.688;2022-07-29T00:09:51;2.20;;;1.47;;
20609;SDS011;10463;52.378;9.688;2022-07-29T00:12:36;3.13;;;1.60;;
20609;SDS011;10463;52.378;9.688;2022-07-29T00:15:20;1.83;;;1.30;;
20609;SDS011;10463;52.378;9.688;2022-07-29T00:18:05;3.37;;;1.47;;
20609;SDS011;10463;52.378;9.688;2022-07-29T00:20:52;2.63;;;1.40;;
20609;SDS011;10463;52.378;9.688;2022-07-29T00:23:37;1.70;;;1.30;;
20609;SDS011;10463;52.378;9.688;2022-07-29T00:26:22;2.80;;;1.53;;
20609;SDS011;10463;52.378;9.688;2022-07-29T00:29:08;1.70;;;1.20;;
20609;SDS011;10463;52.378;9.688;2022-07-29T00:31:52;2.00;;;1.23;;
20609;SDS011;10463;52.378;9.688;2022-07-29T00:34:37;1.90;;;1.53;;
20609;SDS011;10463;52.378;9.688;2022-07-29T00:37:42;2.70;;;1.63;;
20609;SDS011;10463;52.378;9.688;2022-07-29T00:40:27;2.60;;;1.30;;
20609;SDS011;10463;52.378;9.688;2022-07-29T00:43:12;2.03;;;1.30;;
20609;SDS011;10463;52.378;9.688;2022-07-29T00:45:58;3.23;;;1.23;;
20609;SDS011;10463;52.378;9.688;2022-07-29T00:48:43;3.30;;;1.40;;
20609;SDS011;10463;52.378;9.688;2022-07-29T00:51:28;2.13;;;1.40;;
20609;SDS011;10463;52.378;9.688;2022-07-29T00:54:16;2.97;;;1.30;;
20609;SDS011;10463;52.378;9.688;2022-07-29T00:57:01;2.27;;;1.27;;
20609;SDS011;10463;52.378;9.688;2022-07-29T00:59:46;2.10;;;1.20;;
20609;SDS011;10463;52.378;9.688;2022-07-29T01:02:32;4.23;;;1.77;;
20609;SDS011;10463;52.378;9.688;2022-07-29T01:05:18;4.73;;;1.47;;
20609;SDS011;10463;52.378;9.688;2022-07-29T01:08:05;3.80;;;1.63;;
20609;SDS011;10463;52.378;9.688;2022-07-29T01:10:51;3.50;;;1.30;;
20609;SDS011;10463;52.378;9.688;2022-07-29T01:13:37;1.50;;;1.00;;
20609;SDS011;10463;52.378;9.688;2022-07-29T01:16:31;2.43;;;1.40;;
20609;SDS011;10463;52.378;9.688;2022-07-29T01:19:45;2.20;;;1.20;;
20609;SDS011;10463;52.378;9.688;2022-07-29T01:23:01;3.20;;;1.47;;
20609;SDS011;10463;52.378;9.688;2022-07-29T01:26:01;2.53;;;1.30;;
20609;SDS011;10463;52.378;9.688;2022-07-29T01:29:04;3.70;;;1.60;;
20609;SDS011;10463;52.378;9.688;2022-07-29T01:31:56;2.83;;;1.30;;
20609;SDS011;10463;52.378;9.688;2022-07-29T01:34:46;2.90;;;1.70;;
20609;SDS011;10463;52.378;9.688;2022-07-29T01:37:39;2.70;;;1.23;;
20609;SDS011;10463;52.378;9.688;2022-07-29T01:40:30;3.17;;;1.70;;
20609;SDS011;10463;52.378;9.688;2022-07-29T01:43:21;1.97;;;1.50;;
20609;SDS011;10463;52.378;9.688;2022-07-29T01:46:14;1.70;;;1.10;;
20609;SDS011;10463;52.378;9.688;2022-07-29T01:49:08;2.97;;;1.20;;
20609;SDS011;10463;52.378;9.688;2022-07-29T01:51:59;2.60;;;1.40;;
20609;SDS011;10463;52.378;9.688;2022-07-29T01:54:50;2.37;;;1.50;;
20609;SDS011;10463;52.378;9.688;2022-07-29T01:57:38;2.70;;;1.80;;
20609;SDS011;10463;52.378;9.688;2022-07-29T02:00:27;2.07;;;1.30;;
20609;SDS011;10463;52.378;9.688;2022-07-29T02:03:17;1.97;;;1.30;;
20609;SDS011;10463;52.378;9.688;2022-07-29T02:06:03;2.00;;;1.30;;
20609;SDS011;10463;52.378;9.688;2022-07-29T02:08:51;2.20;;;1.33;;
20609;SDS011;10463;52.378;9.688;2022-07-29T02:11:38;1.70;;;1.30;;
20609;SDS011;10463;52.378;9.688;2022-07-29T02:14:24;2.43;;;1.30;;
20609;SDS011;10463;52.378;9.688;2022-07-29T02:17:11;2.60;;;1.60;;
20609;SDS011;10463;52.378;9.688;2022-07-29T02:19:59;1.73;;;1.27;;
20609;SDS011;10463;52.378;9.688;2022-07-29T02:22:47;2.03;;;1.27;;
20609;SDS011;10463;52.378;9.688;2022-07-29T02:25:34;4.60;;;1.50;;
20609;SDS011;10463;52.378;9.688;2022-07-29T02:28:20;2.43;;;1.70;;
20609;SDS011;10463;52.378;9.688;2022-07-29T02:31:08;2.20;;;1.30;;
20609;SDS011;10463;52.378;9.688;2022-07-29T02:33:55;1.70;;;1.20;;
20609;SDS011;10463;52.378;9.688;2022-07-29T02:36:42;2.60;;;1.30;;
20609;SDS011;10463;52.378;9.688;2022-07-29T02:39:29;2.00;;;1.40;;
20609;SDS011;10463;52.378;9.688;2022-07-29T02:42:16;2.37;;;1.50;;
20609;SDS011;10463;52.378;9.688;2022-07-29T02:45:02;4.63;;;1.20;;
20609;SDS011;10463;52.378;9.688;2022-07-29T02:47:48;3.10;;;1.37;;
20609;SDS011;10463;52.378;9.688;2022-07-29T02:50:37;3.00;;;1.43;;
20609;SDS011;10463;52.378;9.688;2022-07-29T02:53:27;2.97;;;1.40;;
20609;SDS011;10463;52.378;9.688;2022-07-29T02:56:16;2.00;;;1.40;;
20609;SDS011;10463;52.378;9.688;2022-07-29T02:59:09;3.17;;;1.50;;
20609;SDS011;10463;52.378;9.688;2022-07-29T03:01:55;3.30;;;1.60;;
20609;SDS011;10463;52.378;9.688;2022-07-29T03:04:43;2.10;;;1.33;;
20609;SDS011;10463;52.378;9.688;2022-07-29T03:07:29;2.40;;;1.50;;
20609;SDS011;10463;52.378;9.688;2022-07-29T03:10:17;1.80;;;1.40;;
20609;SDS011;10463;52.378;9.688;2022-07-29T03:13:02;1.83;;;1.30;;
20609;SDS011;10463;52.378;9.688;2022-07-29T03:15:49;3.20;;;1.30;;
20609;SDS011;10463;52.378;9.688;2022-07-29T03:18:35;3.33;;;1.87;;
20609;SDS011;10463;52.378;9.688;2022-07-29T03:21:20;2.13;;;1.50;;
20609;SDS011;10463;52.378;9.688;2022-07-29T03:24:06;1.90;;;1.20;;
20609;SDS011;10463;52.378;9.688;2022-07-29T03:26:52;2.63;;;1.40;;
20609;SDS011;10463;52.378;9.688;2022-07-29T03:29:38;2.10;;;1.33;;
20609;SDS011;10463;52.378;9.688;2022-07-29T03:32:23;2.33;;;1.50;;
20609;SDS011;10463;52.378;9.688;2022-07-29T03:35:08;2.80;;;1.37;;
20609;SDS011;10463;52.378;9.688;2022-07-29T03:37:53;2.80;;;1.83;;
20609;SDS011;10463;52.378;9.688;2022-07-29T03:40:40;2.23;;;1.33;;
20609;SDS011;10463;52.378;9.688;2022-07-29T03:43:29;2.30;;;1.60;;
20609;SDS011;10463;52.378;9.688;2022-07-29T03:46:17;1.90;;;1.27;;
20609;SDS011;10463;52.378;9.688;2022-07-29T03:49:04;2.20;;;1.20;;
20609;SDS011;10463;52.378;9.688;2022-07-29T03:51:52;2.70;;;1.43;;
20609;SDS011;10463;52.378;9.688;2022-07-29T03:54:38;2.63;;;1.10;;
20609;SDS011;10463;52.378;9.688;2022-07-29T03:57:24;2.40;;;1.50;;
20609;SDS011;10463;52.378;9.688;2022-07-29T04:00:13;2.17;;;1.50;;
20609;SDS011;10463;52.378;9.688;2022-07-29T04:03:00;4.10;;;1.60;;
20609;SDS011;10463;52.378;9.688;2022-07-29T04:05:45;3.03;;;1.20;;
20609;SDS011;10463;52.378;9.688;2022-07-29T04:08:42;2.83;;;1.70;;
20609;SDS011;10463;52.378;9.688;2022-07-29T04:11:27;1.80;;;1.33;;
20609;SDS011;10463;52.378;9.688;2022-07-29T04:14:12;1.70;;;1.30;;
20609;SDS011;10463;52.378;9.688;2022-07-29T04:16:58;2.40;;;1.50;;
20609;SDS011;10463;52.378;9.688;2022-07-29T04:19:43;3.53;;;1.90;;
20609;SDS011;10463;52.378;9.688;2022-07-29T04:22:28;3.37;;;1.60;;
20609;SDS011;10463;52.378;9.688;2022-07-29T04:25:12;2.47;;;1.50;;
20609;SDS011;10463;52.378;9.688;2022-07-29T04:27:57;2.33;;;1.70;;
20609;SDS011;10463;52.378;9.688;2022-07-29T04:30:44;3.50;;;1.77;;
20609;SDS011;10463;52.378;9.688;2022-07-29T04:33:31;2.70;;;1.60;;
20609;SDS011;10463;52.378;9.688;2022-07-29T04:36:15;2.47;;;1.60;;
20609;SDS011;10463;52.378;9.688;2022-07-29T04:39:00;2.80;;;1.40;;
20609;SDS011;10463;52.378;9.688;2022-07-29T04:41:45;2.70;;;1.63;;
20609;SDS011;10463;52.378;9.688;2022-07-29T04:44:31;2.60;;;1.40;;
20609;SDS011;10463;52.378;9.688;2022-07-29T04:47:15;2.63;;;1.63;;
20609;SDS011;10463;52.378;9.688;2022-07-29T04:50:01;3.23;;;1.67;;
20609;SDS011;10463;52.378;9.688;2022-07-29T04:52:47;3.73;;;1.60;;
20609;SDS011;10463;52.378;9.688;2022-07-29T04:55:32;2.77;;;1.50;;
20609;SDS011;10463;52.378;9.688;2022-07-29T04:58:16;2.03;;;1.63;;
20609;SDS011;10463;52.378;9.688;2022-07-29T05:01:02;2.10;;;1.60;;
20609;SDS011;10463;52.378;9.688;2022-07-29T05:03:47;2.50;;;1.40;;
20609;SDS011;10463;52.378;9.688;2022-07-29T05:06:33;4.70;;;1.93;;
20609;SDS011;10463;52.378;9.688;2022-07-29T05:09:18;2.73;;;2.00;;
20609;SDS011;10463;52.378;9.688;2022-07-29T05:12:03;2.77;;;1.80;;
20609;SDS011;10463;52.378;9.688;2022-07-29T05:14:48;2.60;;;2.20;;
20609;SDS011;10463;52.378;9.688;2022-07-29T05:17:33;4.33;;;2.47;;
20609;SDS011;10463;52.378;9.688;2022-07-29T05:20:17;3.10;;;1.63;;
20609;SDS011;10463;52.378;9.688;2022-07-29T05:23:04;2.83;;;1.57;;
20609;SDS011;10463;52.378;9.688;2022-07-29T05:25:48;3.20;;;1.90;;
20609;SDS011;10463;52.378;9.688;2022-07-29T05:28:34;2.90;;;1.50;;
20609;SDS011;10463;52.378;9.688;2022-07-29T05:31:19;2.23;;;1.47;;
20609;SDS011;10463;52.378;9.688;2022-07-29T05:34:03;2.20;;;1.50;;
20609;SDS011;10463;52.378;9.688;2022-07-29T05:36:48;2.80;;;1.97;;
20609;SDS011;10463;52.378;9.688;2022-07-29T05:39:35;3.00;;;1.70;;
20609;SDS011;10463;52.378;9.688;2022-07-29T05:42:20;3.63;;;2.00;;
20609;SDS011;10463;52.378;9.688;2022-07-29T05:45:06;5.00;;;1.60;;
20609;SDS011;10463;52.378;9.688;2022-07-29T05:47:51;3.50;;;2.00;;
20609;SDS011;10463;52.378;9.688;2022-07-29T05:50:36;2.70;;;1.83;;
20609;SDS011;10463;52.378;9.688;2022-07-29T05:53:20;4.20;;;2.10;;
20609;SDS011;10463;52.378;9.688;2022-07-29T05:56:07;2.10;;;1.53;;
20609;SDS011;10463;52.378;9.688;2022-07-29T05:58:52;2.83;;;1.70;;
20609;SDS011;10463;52.378;9.688;2022-07-29T06:01:36;2.50;;;1.60;;
20609;SDS011;10463;52.378;9.688;2022-07-29T06:04:23;2.97;;;2.10;;
20609;SDS011;10463;52.378;9.688;2022-07-29T06:07:08;2.27;;;1.60;;
20609;SDS011;10463;52.378;9.688;2022-07-29T06:09:53;2.77;;;2.40;;
20609;SDS011;10463;52.378;9.688;2022-07-29T06:12:39;3.47;;;1.87;;
20609;SDS011;10463;52.378;9.688;2022-07-29T06:15:24;2.80;;;2.17;;
20609;SDS011;10463;52.378;9.688;2022-07-29T06:18:08;4.20;;;2.50;;
20609;SDS011;10463;52.378;9.688;2022-07-29T06:20:54;4.30;;;1.87;;
20609;SDS011;10463;52.378;9.688;2022-07-29T06:23:39;2.90;;;2.30;;
20609;SDS011;10463;52.378;9.688;2022-07-29T06:26:24;5.97;;;2.77;;
20609;SDS011;10463;52.378;9.688;2022-07-29T06:29:10;2.43;;;2.20;;
20609;SDS011;10463;52.378;9.688;2022-07-29T06:31:55;5.63;;;1.83;;
20609;SDS011;10463;52.378;9.688;2022-07-29T06:34:40;3.83;;;2.30;;
20609;SDS011;10463;52.378;9.688;2022-07-29T06:37:25;7.63;;;1.50;;
20609;SDS011;10463;52.378;9.688;2022-07-29T06:40:13;3.40;;;1.90;;
20609;SDS011;10463;52.378;9.688;2022-07-29T06:43:16;3.57;;;1.90;;
20609;SDS011;10463;52.378;9.688;2022-07-29T06:46:05;6.80;;;1.63;;
20609;SDS011;10463;52.378;9.688;2022-07-29T06:48:52;4.13;;;2.33;;
20609;SDS011;10463;52.378;9.688;2022-07-29T06:51:37;5.00;;;2.43;;
20609;SDS011;10463;52.378;9.688;2022-07-29T06:54:22;5.63;;;2.67;;
20609;SDS011;10463;52.378;9.688;2022-07-29T06:57:07;6.03;;;2.53;;
20609;SDS011;10463;52.378;9.688;2022-07-29T06:59:51;4.70;;;2.30;;
20609;SDS011;10463;52.378;9.688;2022-07-29T07:02:37;3.70;;;1.90;;
20609;SDS011;10463;52.378;9.688;2022-07-29T07:05:22;2.50;;;1.67;;
20609;SDS011;10463;52.378;9.688;2022-07-29T07:08:07;3.00;;;2.00;;
20609;SDS011;10463;52.378;9.688;2022-07-29T07:10:53;2.33;;;1.77;;
20609;SDS011;10463;52.378;9.688;2022-07-29T07:13:39;4.67;;;2.33;;
20609;SDS011;10463;52.378;9.688;2022-07-29T07:16:24;3.57;;;2.43;;
20609;SDS011;10463;52.378;9.688;2022-07-29T07:19:09;4.80;;;2.03;;
20609;SDS011;10463;52.378;9.688;2022-07-29T07:21:54;3.93;;;2.27;;
20609;SDS011;10463;52.378;9.688;2022-07-29T07:24:39;6.63;;;2.73;;
20609;SDS011;10463;52.378;9.688;2022-07-29T07:27:24;3.40;;;1.87;;
20609;SDS011;10463;52.378;9.688;2022-07-29T07:30:09;6.80;;;2.40;;
20609;SDS011;10463;52.378;9.688;2022-07-29T07:32:54;4.57;;;2.50;;
20609;SDS011;10463;52.378;9.688;2022-07-29T07:35:40;6.00;;;2.43;;
20609;SDS011;10463;52.378;9.688;2022-07-29T07:38:25;3.83;;;2.23;;
20609;SDS011;10463;52.378;9.688;2022-07-29T07:41:10;2.87;;;1.80;;
20609;SDS011;10463;52.378;9.688;2022-07-29T07:43:55;3.60;;;2.03;;
20609;SDS011;10463;52.378;9.688;2022-07-29T07:46:40;2.37;;;1.70;;
20609;SDS011;10463;52.378;9.688;2022-07-29T07:49:25;4.67;;;2.70;;
20609;SDS011;10463;52.378;9.688;2022-07-29T07:52:11;4.30;;;2.80;;
20609;SDS011;10463;52.378;9.688;2022-07-29T07:54:55;4.83;;;2.40;;
20609;SDS011;10463;52.378;9.688;2022-07-29T07:57:40;3.37;;;2.53;;
20609;SDS011;10463;52.378;9.688;2022-07-29T08:00:25;2.20;;;1.77;;
20609;SDS011;10463;52.378;9.688;2022-07-29T08:03:11;2.90;;;2.10;;
20609;SDS011;10463;52.378;9.688;2022-07-29T08:05:58;6.03;;;1.80;;
20609;SDS011;10463;52.378;9.688;2022-07-29T08:08:44;7.60;;;2.37;;
20609;SDS011;10463;52.378;9.688;2022-07-29T08:11:29;7.20;;;2.63;;
20609;SDS011;10463;52.378;9.688;2022-07-29T08:14:14;3.90;;;2.40;;
20609;SDS011;10463;52.378;9.688;2022-07-29T08:16:59;6.13;;;2.27;;
20609;SDS011;10463;52.378;9.688;2022-07-29T08:19:44;5.67;;;2.10;;
20609;SDS011;10463;52.378;9.688;2022-07-29T08:22:29;3.90;;;2.50;;
20609;SDS011;10463;52.378;9.688;2022-07-29T08:25:16;4.07;;;2.20;;
20609;SDS011;10463;52.378;9.688;2022-07-29T08:28:04;3.03;;;2.00;;
20609;SDS011;10463;52.378;9.688;2022-07-29T08:30:49;3.87;;;2.50;;
20609;SDS011;10463;52.378;9.688;2022-07-29T08:33:34;4.43;;;2.50;;
20609;SDS011;10463;52.378;9.688;2022-07-29T08:36:18;5.93;;;2.10;;
20609;SDS011;10463;52.378;9.688;2022-07-29T08:39:04;4.53;;;2.40;;
20609;SDS011;10463;52.378;9.688;2022-07-29T08:41:51;3.70;;;2.57;;
20609;SDS011;10463;52.378;9.688;2022-07-29T08:44:36;5.37;;;2.17;;
20609;SDS011;10463;52.378;9.688;2022-07-29T08:47:21;3.90;;;2.30;;
20609;SDS011;10463;52.378;9.688;2022-07-29T08:50:07;3.27;;;2.30;;
20609;SDS011;10463;52.378;9.688;2022-07-29T08:52:52;4.23;;;2.10;;
20609;SDS011;10463;52.378;9.688;2022-07-29T08:55:39;6.00;;;2.73;;
20609;SDS011;10463;52.378;9.688;2022-07-29T08:58:31;8.83;;;2.70;;
20609;SDS011;10463;52.378;9.688;2022-07-29T09:01:21;3.60;;;2.90;;
20609;SDS011;10463;52.378;9.688;2022-07-29T09:04:10;4.03;;;2.63;;
20609;SDS011;10463;52.378;9.688;2022-07-29T09:06:55;5.43;;;2.77;;
20609;SDS011;10463;52.378;9.688;2022-07-29T09:09:43;4.97;;;2.70;;
20609;SDS011;10463;52.378;9.688;2022-07-29T09:12:29;3.80;;;2.50;;
20609;SDS011;10463;52.378;9.688;2022-07-29T09:15:15;4.30;;;2.23;;
20609;SDS011;10463;52.378;9.688;2022-07-29T09:18:02;4.30;;;2.30;;
20609;SDS011;10463;52.378;9.688;2022-07-29T09:20:50;4.10;;;2.30;;
20609;SDS011;10463;52.378;9.688;2022-07-29T09:24:04;4.30;;;2.37;;
20609;SDS011;10463;52.378;9.688;2022-07-29T09:26:51;5.60;;;2.60;;
20609;SDS011;10463;52.378;9.688;2022-07-29T09:29:36;5.53;;;2.80;;
20609;SDS011;10463;52.378;9.688;2022-07-29T09:32:23;5.47;;;3.00;;
20609;SDS011;10463;52.378;9.688;2022-07-29T09:35:17;3.87;;;2.97;;
20609;SDS011;10463;52.378;9.688;2022-07-29T09:38:10;4.30;;;3.30;;
20609;SDS011;10463;52.378;9.688;2022-07-29T09:40:56;3.10;;;2.43;;
20609;SDS011;10463;52.378;9.688;2022-07-29T09:43:52;2.80;;;2.40;;
20609;SDS011;10463;52.378;9.688;2022-07-29T09:46:38;4.80;;;2.67;;
20609;SDS011;10463;52.378;9.688;2022-07-29T09:49:24;5.37;;;2.60;;
20609;SDS011;10463;52.378;9.688;2022-07-29T09:52:10;3.87;;;2.40;;
20609;SDS011;10463;52.378;9.688;2022-07-29T09:55:04;5.33;;;2.60;;
20609;SDS011;10463;52.378;9.688;2022-07-29T09:57:50;6.30;;;2.80;;
20609;SDS011;10463;52.378;9.688;2022-07-29T10:00:34;3.50;;;2.50;;
20609;SDS011;10463;52.378;9.688;2022-07-29T10:03:26;5.30;;;3.00;;
20609;SDS011;10463;52.378;9.688;2022-07-29T10:06:13;3.40;;;2.47;;
20609;SDS011;10463;52.378;9.688;2022-07-29T10:09:07;4.63;;;3.20;;
20609;SDS011;10463;52.378;9.688;2022-07-29T10:12:06;2.60;;;2.27;;
20609;SDS011;10463;52.378;9.688;2022-07-29T10:14:53;6.63;;;2.70;;
20609;SDS011;10463;52.378;9.688;2022-07-29T10:17:38;5.63;;;2.60;;
20609;SDS011;10463;52.378;9.688;2022-07-29T10:20:25;3.00;;;2.00;;
20609;SDS011;10463;52.378;9.688;2022-07-29T10:23:12;3.50;;;2.70;;
20609;SDS011;10463;52.378;9.688;2022-07-29T10:25:58;3.00;;;2.73;;
20609;SDS011;10463;52.378;9.688;2022-07-29T10:28:43;3.27;;;2.90;;
20609;SDS011;10463;52.378;9.688;2022-07-29T10:31:29;3.93;;;2.97;;
20609;SDS011;10463;52.378;9.688;2022-07-29T10:34:31;4.43;;;3.20;;
20609;SDS011;10463;52.378;9.688;2022-07-29T10:37:33;4.37;;;2.60;;
20609;SDS011;10463;52.378;9.688;2022-07-29T10:40:36;3.60;;;2.50;;
20609;SDS011;10463;52.378;9.688;2022-07-29T10:43:48;4.03;;;2.80;;
20609;SDS011;10463;52.378;9.688;2022-07-29T10:46:36;5.70;;;3.30;;
20609;SDS011;10463;52.378;9.688;2022-07-29T10:49:23;4.00;;;2.20;;
20609;SDS011;10463;52.378;9.688;2022-07-29T10:52:10;3.67;;;2.60;;
20609;SDS011;10463;52.378;9.688;2022-07-29T10:54:54;8.50;;;3.67;;
20609;SDS011;10463;52.378;9.688;2022-07-29T10:57:44;3.10;;;2.53;;
20609;SDS011;10463;52.378;9.688;2022-07-29T11:00:57;5.00;;;3.33;;
20609;SDS011;10463;52.378;9.688;2022-07-29T11:04:02;4.97;;;3.27;;
20609;SDS011;10463;52.378;9.688;2022-07-29T11:07:16;3.70;;;2.87;;
20609;SDS011;10463;52.378;9.688;2022-07-29T11:10:25;2.80;;;2.50;;
20609;SDS011;10463;52.378;9.688;2022-07-29T11:13:10;7.30;;;3.50;;
20609;SDS011;10463;52.378;9.688;2022-07-29T11:15:57;5.03;;;2.90;;
20609;SDS011;10463;52.378;9.688;2022-07-29T11:19:20;8.87;;;3.20;;
20609;SDS011;10463;52.378;9.688;2022-07-29T11:22:07;4.80;;;3.00;;
20609;SDS011;10463;52.378;9.688;2022-07-29T11:25:14;3.10;;;2.80;;
20609;SDS011;10463;52.378;9.688;2022-07-29T11:28:09;4.27;;;2.50;;
20609;SDS011;10463;52.378;9.688;2022-07-29T11:30:57;3.93;;;2.90;;
20609;SDS011;10463;52.378;9.688;2022-07-29T11:33:43;5.23;;;2.63;;
20609;SDS011;10463;52.378;9.688;2022-07-29T11:36:29;3.27;;;2.50;;
20609;SDS011;10463;52.378;9.688;2022-07-29T11:39:26;6.63;;;3.03;;
20609;SDS011;10463;52.378;9.688;2022-07-29T11:42:37;5.30;;;2.60;;
20609;SDS011;10463;52.378;9.688;2022-07-29T11:45:44;4.47;;;2.80;;
20609;SDS011;10463;52.378;9.688;2022-07-29T11:48:30;3.13;;;2.40;;
20609;SDS011;10463;52.378;9.688;2022-07-29T11:51:15;3.67;;;2.60;;
20609;SDS011;10463;52.378;9.688;2022-07-29T11:54:00;3.37;;;2.80;;
20609;SDS011;10463;52.378;9.688;2022-07-29T11:56:46;3.43;;;2.70;;
20609;SDS011;10463;52.378;9.688;2022-07-29T11:59:32;2.87;;;2.00;;
20609;SDS011;10463;52.378;9.688;2022-07-29T12:02:25;7.30;;;3.17;;
20609;SDS011;10463;52.378;9.688;2022-07-29T12:05:31;3.33;;;2.70;;
20609;SDS011;10463;52.378;9.688;2022-07-29T12:08:20;3.57;;;2.60;;
20609;SDS011;10463;52.378;9.688;2022-07-29T12:11:15;3.20;;;2.90;;
20609;SDS011;10463;52.378;9.688;2022-07-29T12:14:01;5.57;;;2.90;;
20609;SDS011;10463;52.378;9.688;2022-07-29T12:16:46;5.13;;;2.80;;
20609;SDS011;10463;52.378;9.688;2022-07-29T12:19:41;3.00;;;2.60;;
20609;SDS011;10463;52.378;9.688;2022-07-29T12:22:28;3.60;;;2.30;;
20609;SDS011;10463;52.378;9.688;2022-07-29T12:25:16;3.20;;;2.30;;
20609;SDS011;10463;52.378;9.688;2022-07-29T12:28:03;7.80;;;2.93;;
20609;SDS011;10463;52.378;9.688;2022-07-29T12:30:50;5.10;;;3.10;;
20609;SDS011;10463;52.378;9.688;2022-07-29T12:33:35;3.10;;;2.37;;
20609;SDS011;10463;52.378;9.688;2022-07-29T12:36:21;2.67;;;2.40;;
20609;SDS011;10463;52.378;9.688;2022-07-29T12:39:06;2.60;;;2.40;;
20609;SDS011;10463;52.378;9.688;2022-07-29T12:41:53;8.03;;;2.77;;
20609;SDS011;10463;52.378;9.688;2022-07-29T12:44:46;2.90;;;2.47;;
20609;SDS011;10463;52.378;9.688;2022-07-29T12:47:32;3.80;;;3.27;;
20609;SDS011;10463;52.378;9.688;2022-07-29T12:50:16;3.43;;;2.50;;
20609;SDS011;10463;52.378;9.688;2022-07-29T12:53:10;5.50;;;2.63;;
20609;SDS011;10463;52.378;9.688;2022-07-29T12:55:56;4.10;;;2.90;;
20609;SDS011;10463;52.378;9.688;2022-07-29T12:58:43;3.30;;;2.50;;
20609;SDS011;10463;52.378;9.688;2022-07-29T13:01:28;6.50;;;3.40;;
20609;SDS011;10463;52.378;9.688;2022-07-29T13:04:24;3.70;;;2.47;;
20609;SDS011;10463;52.378;9.688;2022-07-29T13:07:11;5.23;;;3.50;;
20609;SDS011;10463;52.378;9.688;2022-07-29T13:10:12;3.73;;;2.50;;
20609;SDS011;10463;52.378;9.688;2022-07-29T13:13:03;3.73;;;3.10;;
20609;SDS011;10463;52.378;9.688;2022-07-29T13:16:05;2.60;;;2.20;;
20609;SDS011;10463;52.378;9.688;2022-07-29T13:19:03;5.00;;;3.37;;
20609;SDS011;10463;52.378;9.688;2022-07-29T13:21:49;4.50;;;2.73;;
20609;SDS011;10463;52.378;9.688;2022-07-29T13:24:34;3.80;;;2.37;;
20609;SDS011;10463;52.378;9.688;2022-07-29T13:27:32;3.07;;;2.50;;
20609;SDS011;10463;52.378;9.688;2022-07-29T13:30:20;3.03;;;2.67;;
20609;SDS011;10463;52.378;9.688;2022-07-29T13:33:06;4.90;;;2.93;;
20609;SDS011;10463;52.378;9.688;2022-07-29T13:35:51;3.20;;;2.53;;
20609;SDS011;10463;52.378;9.688;2022-07-29T13:38:36;4.60;;;2.73;;
20609;SDS011;10463;52.378;9.688;2022-07-29T13:41:20;6.13;;;3.20;;
20609;SDS011;10463;52.378;9.688;2022-07-29T13:44:06;5.73;;;3.33;;
20609;SDS011;10463;52.378;9.688;2022-07-29T13:46:51;5.73;;;3.00;;
20609;SDS011;10463;52.378;9.688;2022-07-29T13:49:36;4.33;;;3.27;;
20609;SDS011;10463;52.378;9.688;2022-07-29T13:52:20;5.40;;;3.23;;
20609;SDS011;10463;52.378;9.688;2022-07-29T13:55:07;3.20;;;2.87;;
20609;SDS011;10463;52.378;9.688;2022-07-29T13:57:53;5.30;;;2.77;;
20609;SDS011;10463;52.378;9.688;2022-07-29T14:00:39;9.30;;;3.57;;
20609;SDS011;10463;52.378;9.688;2022-07-29T14:03:24;5.40;;;3.50;;
20609;SDS011;10463;52.378;9.688;2022-07-29T14:06:09;6.63;;;3.43;;
20609;SDS011;10463;52.378;9.688;2022-07-29T14:08:54;6.00;;;4.10;;
20609;SDS011;10463;52.378;9.688;2022-07-29T14:11:39;5.87;;;3.70;;
20609;SDS011;10463;52.378;9.688;2022-07-29T14:14:24;6.27;;;3.50;;
20609;SDS011;10463;52.378;9.688;2022-07-29T14:17:10;6.17;;;4.00;;
20609;SDS011;10463;52.378;9.688;2022-07-29T14:19:55;5.80;;;3.37;;
20609;SDS011;10463;52.378;9.688;2022-07-29T14:22:40;5.30;;;3.00;;
20609;SDS011;10463;52.378;9.688;2022-07-29T14:25:24;5.10;;;4.47;;
20609;SDS011;10463;52.378;9.688;2022-07-29T14:28:10;7.20;;;3.67;;
20609;SDS011;10463;52.378;9.688;2022-07-29T14:30:55;4.87;;;3.80;;
20609;SDS011;10463;52.378;9.688;2022-07-29T14:33:41;3.70;;;3.13;;
20609;SDS011;10463;52.378;9.688;2022-07-29T14:36:26;4.43;;;3.30;;
20609;SDS011;10463;52.378;9.688;2022-07-29T14:39:11;4.30;;;2.97;;
20609;SDS011;10463;52.378;9.688;2022-07-29T14:41:56;5.63;;;3.87;;
20609;SDS011;10463;52.378;9.688;2022-07-29T14:44:40;5.63;;;3.03;;
20609;SDS011;10463;52.378;9.688;2022-07-29T14:47:26;4.90;;;3.33;;
20609;SDS011;10463;52.378;9.688;2022-07-29T14:50:12;5.33;;;3.33;;
20609;SDS011;10463;52.378;9.688;2022-07-29T14:53:00;5.07;;;3.10;;
20609;SDS011;10463;52.378;9.688;2022-07-29T14:55:45;4.10;;;3.07;;
20609;SDS011;10463;52.378;9.688;2022-07-29T14:58:29;4.20;;;3.30;;
20609;SDS011;10463;52.378;9.688;2022-07-29T15:01:14;3.70;;;3.17;;
20609;SDS011;10463;52.378;9.688;2022-07-29T15:04:00;3.40;;;3.10;;
20609;SDS011;10463;52.378;9.688;2022-07-29T15:06:47;7.53;;;3.27;;
20609;SDS011;10463;52.378;9.688;2022-07-29T15:09:32;3.77;;;3.23;;
20609;SDS011;10463;52.378;9.688;2022-07-29T15:12:16;4.47;;;3.63;;
20609;SDS011;10463;52.378;9.688;2022-07-29T15:15:02;5.33;;;3.40;;
20609;SDS011;10463;52.378;9.688;2022-07-29T15:17:47;5.97;;;3.77;;
20609;SDS011;10463;52.378;9.688;2022-07-29T15:20:32;5.87;;;3.63;;
20609;SDS011;10463;52.378;9.688;2022-07-29T15:23:19;4.77;;;3.37;;
20609;SDS011;10463;52.378;9.688;2022-07-29T15:26:04;4.83;;;3.87;;
20609;SDS011;10463;52.378;9.688;2022-07-29T15:28:49;5.13;;;3.30;;
20609;SDS011;10463;52.378;9.688;2022-07-29T15:31:33;6.40;;;3.60;;
20609;SDS011;10463;52.378;9.688;2022-07-29T15:34:18;6.33;;;3.47;;
20609;SDS011;10463;52.378;9.688;2022-07-29T15:37:04;3.43;;;2.90;;
20609;SDS011;10463;52.378;9.688;2022-07-29T15:39:51;4.13;;;3.30;;
20609;SDS011;10463;52.378;9.688;2022-07-29T15:42:35;4.13;;;3.17;;
20609;SDS011;10463;52.378;9.688;2022-07-29T15:45:21;4.10;;;3.47;;
20609;SDS011;10463;52.378;9.688;2022-07-29T15:48:07;5.70;;;3.00;;
20609;SDS011;10463;52.378;9.688;2022-07-29T15:50:53;5.00;;;3.43;;
20609;SDS011;10463;52.378;9.688;2022-07-29T15:53:39;4.63;;;3.13;;
20609;SDS011;10463;52.378;9.688;2022-07-29T15:56:25;5.47;;;3.30;;
20609;SDS011;10463;52.378;9.688;2022-07-29T15:59:10;3.43;;;3.07;;
20609;SDS011;10463;52.378;9.688;2022-07-29T16:01:54;3.73;;;3.33;;
20609;SDS011;10463;52.378;9.688;2022-07-29T16:04:39;4.10;;;3.10;;
20609;SDS011;10463;52.378;9.688;2022-07-29T16:07:24;4.60;;;2.90;;
20609;SDS011;10463;52.378;9.688;2022-07-29T16:10:08;3.67;;;3.10;;
20609;SDS011;10463;52.378;9.688;2022-07-29T16:12:55;5.23;;;3.60;;
20609;SDS011;10463;52.378;9.688;2022-07-29T16:15:40;5.30;;;3.17;;
20609;SDS011;10463;52.378;9.688;2022-07-29T16:18:25;3.90;;;3.37;;
20609;SDS011;10463;52.378;9.688;2022-07-29T16:21:09;4.93;;;3.20;;
20609;SDS011;10463;52.378;9.688;2022-07-29T16:23:55;4.33;;;3.40;;
20609;SDS011;10463;52.378;9.688;2022-07-29T16:26:40;6.70;;;3.60;;
20609;SDS011;10463;52.378;9.688;2022-07-29T16:29:26;4.90;;;3.33;;
20609;SDS011;10463;52.378;9.688;2022-07-29T16:32:14;4.43;;;3.23;;
20609;SDS011;10463;52.378;9.688;2022-07-29T16:34:59;3.80;;;3.27;;
20609;SDS011;10463;52.378;9.688;2022-07-29T16:37:45;4.27;;;3.03;;
20609;SDS011;10463;52.378;9.688;2022-07-29T16:40:30;3.93;;;2.90;;
20609;SDS011;10463;52.378;9.688;2022-07-29T16:43:14;4.23;;;3.47;;
20609;SDS011;10463;52.378;9.688;2022-07-29T16:46:01;3.17;;;2.80;;
20609;SDS011;10463;52.378;9.688;2022-07-29T16:48:46;7.47;;;3.87;;
20609;SDS011;10463;52.378;9.688;2022-07-29T16:51:31;3.37;;;3.07;;